createdAt,value
2023-05-24T00:01:25.864Z,15.32
2023-05-24T00:04:15.159Z,15.31
2023-05-24T00:07:05.397Z,15.16
2023-05-24T00:09:54.196Z,15.13
2023-05-24T00:12:42.805Z,15.07
2023-05-24T00:15:31.311Z,14.95
2023-05-24T00:18:19.894Z,14.93
2023-05-24T00:21:08.635Z,14.92
2023-05-24T00:23:58.499Z,14.90
2023-05-24T00:26:47.078Z,14.92
2023-05-24T00:29:35.702Z,14.90
2023-05-24T00:32:24.373Z,14.84
2023-05-24T00:35:12.876Z,14.77
2023-05-24T00:38:01.680Z,14.73
2023-05-24T00:40:51.571Z,14.62
2023-05-24T00:43:40.122Z,14.47
2023-05-24T00:46:30.580Z,14.67
2023-05-24T00:49:20.038Z,14.66
2023-05-24T00:52:09.815Z,14.60
2023-05-24T00:54:58.347Z,14.54
2023-05-24T00:57:48.174Z,14.47
2023-05-24T01:00:37.262Z,14.44
2023-05-24T01:03:25.871Z,14.32
2023-05-24T01:06:15.959Z,14.27
2023-05-24T01:09:13.120Z,14.24
2023-05-24T01:12:11.441Z,14.16
2023-05-24T01:15:10.268Z,14.17
2023-05-24T01:18:05.975Z,14.12
2023-05-24T01:21:02.753Z,14.09
2023-05-24T01:23:59.301Z,14.06
2023-05-24T01:27:02.880Z,14.02
2023-05-24T01:29:53.538Z,13.91
2023-05-24T01:32:42.089Z,13.90
2023-05-24T01:35:30.604Z,13.86
2023-05-24T01:38:19.133Z,13.92
2023-05-24T01:41:17.636Z,13.83
2023-05-24T01:44:14.292Z,13.74
2023-05-24T01:47:06.042Z,13.57
2023-05-24T01:49:56.198Z,13.76
2023-05-24T01:52:46.165Z,13.74
2023-05-24T01:55:35.915Z,13.72
2023-05-24T01:58:25.148Z,13.66
2023-05-24T02:01:15.442Z,13.61
2023-05-24T02:04:04.248Z,13.52
2023-05-24T02:06:52.698Z,13.59
2023-05-24T02:09:41.178Z,13.57
2023-05-24T02:12:29.646Z,13.54
2023-05-24T02:15:18.188Z,13.47
2023-05-24T02:18:08.776Z,13.45
2023-05-24T02:20:57.281Z,13.48
2023-05-24T02:23:45.974Z,13.29
2023-05-24T02:26:34.505Z,13.34
2023-05-24T02:29:23.466Z,13.44
2023-05-24T02:32:11.989Z,13.38
2023-05-24T02:35:02.993Z,13.42
2023-05-24T02:37:51.481Z,13.46
2023-05-24T02:40:40.003Z,13.45
2023-05-24T02:43:28.554Z,13.39
2023-05-24T02:46:17.099Z,13.38
2023-05-24T02:49:14.648Z,13.32
2023-05-24T02:52:04.743Z,13.24
2023-05-24T02:54:54.288Z,13.28
2023-05-24T02:57:43.038Z,13.30
2023-05-24T03:00:32.012Z,13.16
2023-05-24T03:03:20.617Z,13.20
2023-05-24T03:06:09.174Z,13.15
2023-05-24T03:08:59.327Z,13.07
2023-05-24T03:11:47.882Z,13.06
2023-05-24T03:14:36.393Z,12.99
2023-05-24T03:17:25.148Z,12.95
2023-05-24T03:20:13.929Z,12.80
2023-05-24T03:23:02.502Z,12.93
2023-05-24T03:25:52.384Z,12.92
2023-05-24T03:28:41.912Z,12.93
2023-05-24T03:31:30.705Z,12.92
2023-05-24T03:34:19.577Z,12.89
2023-05-24T03:37:08.096Z,12.93
2023-05-24T03:39:56.579Z,12.97
2023-05-24T03:42:46.489Z,12.90
2023-05-24T03:45:39.606Z,12.78
2023-05-24T03:48:29.018Z,12.22
2023-05-24T03:51:17.532Z,12.61
2023-05-24T03:54:06.470Z,12.61
2023-05-24T03:56:55.309Z,12.53
2023-05-24T03:59:45.237Z,12.27
2023-05-24T04:02:33.819Z,12.45
2023-05-24T04:05:26.809Z,12.49
2023-05-24T04:08:15.414Z,12.58
2023-05-24T04:11:03.969Z,12.63
2023-05-24T04:13:55.302Z,12.64
2023-05-24T04:16:45.268Z,12.71
2023-05-24T04:19:33.906Z,12.67
2023-05-24T04:22:24.264Z,12.64
2023-05-24T04:25:14.104Z,12.64
2023-05-24T04:28:03.951Z,12.64
2023-05-24T04:30:53.777Z,12.14
2023-05-24T04:33:43.763Z,12.48
2023-05-24T04:36:34.018Z,12.50
2023-05-24T04:39:23.686Z,12.45
2023-05-24T04:42:12.946Z,11.61
2023-05-24T04:45:04.379Z,12.31
2023-05-24T04:47:52.999Z,12.33
2023-05-24T04:50:43.105Z,12.36
2023-05-24T04:53:32.892Z,12.38
2023-05-24T04:56:21.611Z,12.40
2023-05-24T04:59:10.237Z,12.37
2023-05-24T05:01:58.857Z,12.36
2023-05-24T05:04:47.437Z,12.38
2023-05-24T05:07:38.375Z,12.40
2023-05-24T05:10:27.156Z,12.41
2023-05-24T05:13:15.948Z,12.42
2023-05-24T05:16:05.424Z,12.31
2023-05-24T05:18:53.961Z,12.40
2023-05-24T05:21:42.466Z,12.40
2023-05-24T05:24:32.307Z,12.44
2023-05-24T05:27:21.026Z,12.49
2023-05-24T05:30:10.469Z,12.47
2023-05-24T05:32:59.373Z,12.54
2023-05-24T05:35:47.944Z,12.52
2023-05-24T05:38:36.517Z,12.44
2023-05-24T05:41:26.381Z,12.55
2023-05-24T05:44:15.014Z,12.66
2023-05-24T05:47:04.011Z,12.64
2023-05-24T05:49:52.854Z,12.72
2023-05-24T05:52:41.494Z,12.77
2023-05-24T05:55:30.259Z,12.81
2023-05-24T05:58:20.142Z,12.71
2023-05-24T06:01:08.723Z,12.96
2023-05-24T06:03:57.263Z,13.03
2023-05-24T06:06:49.611Z,12.99
2023-05-24T06:09:38.425Z,13.10
2023-05-24T06:12:27.013Z,13.11
2023-05-24T06:15:17.261Z,13.06
2023-05-24T06:18:06.143Z,13.10
2023-05-24T06:20:54.802Z,12.98
2023-05-24T06:23:44.395Z,13.17
2023-05-24T06:26:33.325Z,13.30
2023-05-24T06:29:22.967Z,13.05
2023-05-24T06:32:12.933Z,13.17
2023-05-24T06:35:01.453Z,13.12
2023-05-24T06:37:49.964Z,12.77
2023-05-24T06:40:38.519Z,12.90
2023-05-24T06:43:27.116Z,12.80
2023-05-24T06:46:15.770Z,12.46
2023-05-24T06:49:05.770Z,12.55
2023-05-24T06:51:54.437Z,12.53
2023-05-24T06:54:43.250Z,12.81
2023-05-24T06:57:31.920Z,12.90
2023-05-24T07:00:21.581Z,12.95
2023-05-24T07:03:10.543Z,13.02
2023-05-24T07:06:00.534Z,12.97
2023-05-24T07:08:49.102Z,13.01
2023-05-24T07:11:37.816Z,12.69
2023-05-24T07:14:27.421Z,12.88
2023-05-24T07:17:16.181Z,12.82
2023-05-24T07:20:10.177Z,13.18
2023-05-24T07:23:01.160Z,13.30
2023-05-24T07:25:49.968Z,13.43
2023-05-24T07:28:40.479Z,13.32
2023-05-24T07:31:31.329Z,13.30
2023-05-24T07:34:20.748Z,13.30
2023-05-24T07:37:09.532Z,13.27
2023-05-24T07:39:59.830Z,13.36
2023-05-24T07:42:48.666Z,13.32
2023-05-24T07:45:37.390Z,13.16
2023-05-24T07:48:26.221Z,13.10
2023-05-24T07:51:14.854Z,13.36
2023-05-24T07:54:03.710Z,13.51
2023-05-24T07:56:53.958Z,13.56
2023-05-24T07:59:42.934Z,13.76
2023-05-24T08:02:32.070Z,14.19
2023-05-24T08:05:20.929Z,14.39
2023-05-24T08:08:09.622Z,14.66
2023-05-24T08:10:58.237Z,14.84
2023-05-24T08:13:48.175Z,15.13
2023-05-24T08:16:36.789Z,14.90
2023-05-24T08:19:25.384Z,14.99
2023-05-24T08:22:13.999Z,14.91
2023-05-24T08:25:02.545Z,14.98
2023-05-24T08:27:52.112Z,14.80
2023-05-24T08:30:42.215Z,14.81
2023-05-24T08:33:30.818Z,14.56
2023-05-24T08:36:19.581Z,14.50
2023-05-24T08:39:09.320Z,14.69
2023-05-24T08:42:08.600Z,14.82
2023-05-24T08:45:05.621Z,15.02
2023-05-24T08:47:56.472Z,15.07
2023-05-24T08:50:45.652Z,15.16
2023-05-24T08:53:36.575Z,15.21
2023-05-24T08:56:26.815Z,15.33
2023-05-24T08:59:15.449Z,15.27
2023-05-24T09:02:06.162Z,15.30
2023-05-24T09:04:56.802Z,15.02
2023-05-24T09:07:46.345Z,15.29
2023-05-24T09:10:49.362Z,15.38
2023-05-24T09:13:43.063Z,15.27
2023-05-24T09:16:31.796Z,15.24
2023-05-24T09:19:21.177Z,15.24
2023-05-24T09:22:11.276Z,15.17
2023-05-24T09:25:01.784Z,15.44
2023-05-24T09:27:51.676Z,15.41
2023-05-24T09:30:40.280Z,15.91
2023-05-24T09:33:32.428Z,16.38
2023-05-24T09:36:20.982Z,16.33
2023-05-24T09:39:11.574Z,16.63
2023-05-24T09:42:00.100Z,16.46
2023-05-24T09:44:48.796Z,16.53
2023-05-24T09:47:38.550Z,16.60
2023-05-24T09:50:28.249Z,16.82
2023-05-24T09:53:18.228Z,16.89
2023-05-24T09:56:09.370Z,17.14
2023-05-24T09:58:58.087Z,17.38
2023-05-24T10:01:47.375Z,17.68
2023-05-24T10:04:36.378Z,17.87
2023-05-24T10:07:25.392Z,17.93
2023-05-24T10:10:13.914Z,17.94
2023-05-24T10:13:04.350Z,17.78
2023-05-24T10:15:52.872Z,17.90
2023-05-24T10:18:41.488Z,18.11
2023-05-24T10:21:32.897Z,18.16
2023-05-24T10:24:24.929Z,18.25
2023-05-24T10:27:15.400Z,18.34
2023-05-24T10:30:13.828Z,18.57
2023-05-24T10:33:03.166Z,18.65
2023-05-24T10:35:52.070Z,18.85
2023-05-24T10:38:41.440Z,19.11
2023-05-24T10:41:30.212Z,18.90
2023-05-24T10:44:20.387Z,18.93
2023-05-24T10:47:14.274Z,19.15
2023-05-24T10:50:17.821Z,19.02
2023-05-24T10:53:13.791Z,19.38
2023-05-24T10:56:04.130Z,19.26
2023-05-24T10:59:02.418Z,18.68
2023-05-24T11:01:56.500Z,18.64
2023-05-24T11:04:49.202Z,18.17
2023-05-24T11:07:42.773Z,17.99
2023-05-24T11:10:32.271Z,18.43
2023-05-24T11:13:21.636Z,18.35
2023-05-24T11:16:10.550Z,18.57
2023-05-24T11:18:59.448Z,18.55
2023-05-24T11:21:50.486Z,18.83
2023-05-24T11:24:42.274Z,18.69
2023-05-24T11:27:31.972Z,19.01
2023-05-24T11:30:20.643Z,18.88
2023-05-24T11:33:16.081Z,18.89
2023-05-24T11:36:05.046Z,18.95
2023-05-24T11:38:56.733Z,19.05
2023-05-24T11:41:45.554Z,19.20
2023-05-24T11:44:35.218Z,19.44
2023-05-24T11:47:24.891Z,19.90
2023-05-24T11:50:16.713Z,19.46
2023-05-24T11:53:11.615Z,19.38
2023-05-24T11:56:01.489Z,18.97
2023-05-24T11:58:50.987Z,19.55
2023-05-24T12:01:39.531Z,19.42
2023-05-24T12:04:29.030Z,19.29
2023-05-24T12:07:17.780Z,19.29
2023-05-24T12:10:08.151Z,19.12
2023-05-24T12:12:58.054Z,19.40
2023-05-24T12:15:46.639Z,19.77
2023-05-24T12:18:38.658Z,19.47
2023-05-24T12:21:33.111Z,18.99
2023-05-24T12:24:21.601Z,18.90
2023-05-24T12:27:10.408Z,19.38
2023-05-24T12:30:09.925Z,19.71
2023-05-24T12:32:59.518Z,20.01
2023-05-24T12:35:49.915Z,19.79
2023-05-24T12:38:38.569Z,19.94
2023-05-24T12:41:27.842Z,20.23
2023-05-24T12:44:16.408Z,20.19
2023-05-24T12:47:08.529Z,20.38
2023-05-24T12:49:57.402Z,20.32
2023-05-24T12:52:47.412Z,20.16
2023-05-24T12:55:36.248Z,19.85
2023-05-24T12:58:25.144Z,19.51
2023-05-24T13:01:13.787Z,19.59
2023-05-24T13:04:03.754Z,19.82
2023-05-24T13:06:52.267Z,20.05
2023-05-24T13:09:40.839Z,20.01
2023-05-24T13:12:29.440Z,20.20
2023-05-24T13:15:19.363Z,19.96
2023-05-24T13:18:08.828Z,20.15
2023-05-24T13:21:00.475Z,20.09
2023-05-24T13:23:49.400Z,20.07
2023-05-24T13:26:38.767Z,19.98
2023-05-24T13:29:39.532Z,20.13
2023-05-24T13:32:32.109Z,19.76
2023-05-24T13:35:21.461Z,19.82
2023-05-24T13:38:11.410Z,19.93
2023-05-24T13:41:00.040Z,19.95
2023-05-24T13:43:48.885Z,20.08
2023-05-24T13:46:37.649Z,20.17
2023-05-24T13:49:26.606Z,20.33
2023-05-24T13:52:15.361Z,20.50
2023-05-24T13:55:06.213Z,20.44
2023-05-24T13:57:55.425Z,20.58
2023-05-24T14:00:44.154Z,20.16
2023-05-24T14:03:33.049Z,20.08
2023-05-24T14:06:22.222Z,20.33
2023-05-24T14:09:10.911Z,20.59
2023-05-24T14:12:03.275Z,20.19
2023-05-24T14:17:43.217Z,20.26
2023-05-24T14:20:32.750Z,20.50
2023-05-24T14:23:21.444Z,20.47
2023-05-24T14:26:10.117Z,20.20
2023-05-24T14:29:00.019Z,19.87
2023-05-24T14:31:48.621Z,19.91
2023-05-24T14:34:37.395Z,19.93
2023-05-24T14:37:25.999Z,20.18
2023-05-24T14:40:17.000Z,20.06
2023-05-24T14:43:10.083Z,19.82
2023-05-24T14:46:00.317Z,19.64
2023-05-24T14:48:49.126Z,19.82
2023-05-24T14:51:38.312Z,19.40
2023-05-24T14:54:27.357Z,19.62
2023-05-24T14:57:16.097Z,19.81
2023-05-24T15:00:05.158Z,19.49
2023-05-24T15:02:55.116Z,19.69
2023-05-24T15:05:44.204Z,19.93
2023-05-24T15:08:32.749Z,19.83
2023-05-24T15:11:22.955Z,19.93
2023-05-24T15:14:11.584Z,19.89
2023-05-24T15:17:00.283Z,20.06
2023-05-24T15:19:56.628Z,20.01
2023-05-24T15:22:45.849Z,19.66
2023-05-24T15:25:34.429Z,19.63
2023-05-24T15:28:26.054Z,19.71
2023-05-24T15:31:15.153Z,19.47
2023-05-24T15:34:04.929Z,19.26
2023-05-24T15:36:54.840Z,19.53
2023-05-24T15:39:43.330Z,19.50
2023-05-24T15:42:32.221Z,19.56
2023-05-24T15:45:21.199Z,19.43
2023-05-24T15:48:10.078Z,19.42
2023-05-24T15:51:53.567Z,19.33
2023-05-24T15:54:09.873Z,19.37
2023-05-24T15:57:00.486Z,19.21
2023-05-24T15:59:49.016Z,19.19
2023-05-24T16:02:37.666Z,19.00
2023-05-24T16:05:26.914Z,18.97
2023-05-24T16:08:16.177Z,18.60
2023-05-24T16:11:08.372Z,18.80
2023-05-24T16:13:57.321Z,18.80
2023-05-24T16:16:45.963Z,18.65
2023-05-24T16:19:34.510Z,18.68
2023-05-24T16:22:23.894Z,18.74
2023-05-24T16:25:12.417Z,18.46
2023-05-24T16:28:03.604Z,18.75
2023-05-24T16:30:55.672Z,18.11
2023-05-24T16:33:45.142Z,18.25
2023-05-24T16:36:34.003Z,18.13
2023-05-24T16:39:22.476Z,18.20
2023-05-24T16:42:11.089Z,18.10
2023-05-24T16:45:00.990Z,17.82
2023-05-24T16:47:49.648Z,18.17
2023-05-24T16:50:38.232Z,17.96
2023-05-24T16:53:27.823Z,17.89
2023-05-24T16:56:16.689Z,17.92
2023-05-24T16:59:05.304Z,17.84
2023-05-24T17:01:55.530Z,17.78
2023-05-24T17:04:44.136Z,17.78
2023-05-24T17:07:32.877Z,17.85
2023-05-24T17:10:21.607Z,17.88
2023-05-24T17:13:10.192Z,17.61
2023-05-24T17:15:59.948Z,17.63
2023-05-24T17:18:50.143Z,17.59
2023-05-24T17:21:38.686Z,17.61
2023-05-24T17:24:27.877Z,17.38
2023-05-24T17:27:19.889Z,17.22
2023-05-24T17:30:10.938Z,17.14
2023-05-24T17:32:59.522Z,17.04
2023-05-24T17:35:49.460Z,16.95
2023-05-24T17:38:39.007Z,16.97
2023-05-24T17:41:27.845Z,17.02
2023-05-24T17:44:16.408Z,17.04
2023-05-24T17:47:05.659Z,16.82
2023-05-24T17:49:54.573Z,16.81
2023-05-24T17:52:44.424Z,16.79
2023-05-24T17:55:33.046Z,16.71
2023-05-24T17:58:21.559Z,16.59
2023-05-24T18:01:11.730Z,15.79
2023-05-24T18:04:00.411Z,16.61
2023-05-24T18:06:49.037Z,16.65
2023-05-24T18:09:38.938Z,16.64
2023-05-24T18:12:27.414Z,16.52
2023-05-24T18:15:16.253Z,16.46
2023-05-24T18:18:05.123Z,16.39
2023-05-24T18:20:56.634Z,16.22
2023-05-24T18:23:45.166Z,16.23
2023-05-24T18:26:35.054Z,16.25
2023-05-24T18:29:23.789Z,15.88
2023-05-24T18:32:12.392Z,16.06
2023-05-24T18:35:01.041Z,16.00
2023-05-24T18:37:49.586Z,16.03
2023-05-24T18:40:38.063Z,15.89
2023-05-24T18:43:28.092Z,15.81
2023-05-24T18:46:16.838Z,15.83
2023-05-24T18:49:08.281Z,15.70
2023-05-24T18:51:56.998Z,15.75
2023-05-24T18:54:45.555Z,15.75
2023-05-24T18:57:34.082Z,15.58
2023-05-24T19:00:24.525Z,15.64
2023-05-24T19:03:13.305Z,15.53
2023-05-24T19:06:01.979Z,15.44
2023-05-24T19:08:50.519Z,15.45
2023-05-24T19:11:39.057Z,15.32
2023-05-24T19:14:27.609Z,15.28
2023-05-24T19:17:17.471Z,15.26
2023-05-24T19:20:07.327Z,15.22
2023-05-24T19:22:56.397Z,15.21
2023-05-24T19:25:47.834Z,15.15
2023-05-24T19:28:40.137Z,15.18
2023-05-24T19:31:29.551Z,15.10
2023-05-24T19:34:19.440Z,15.17
2023-05-24T19:37:08.001Z,15.22
2023-05-24T19:39:56.585Z,15.17
2023-05-24T19:42:45.141Z,15.14
2023-05-24T19:45:33.933Z,15.12
2023-05-24T19:48:22.577Z,15.07
2023-05-24T19:51:13.282Z,14.96
2023-05-24T19:54:01.954Z,14.98
2023-05-24T19:56:51.976Z,15.01
2023-05-24T19:59:40.630Z,14.91
2023-05-24T20:02:29.371Z,14.91
2023-05-24T20:05:18.459Z,14.86
2023-05-24T20:08:08.633Z,14.75
2023-05-24T20:10:57.888Z,14.68
2023-05-24T20:13:46.435Z,14.57
2023-05-24T20:16:35.020Z,14.46
2023-05-24T20:19:23.528Z,14.36
2023-05-24T20:22:12.488Z,14.23
2023-05-24T20:25:02.447Z,14.15
2023-05-24T20:27:51.277Z,13.85
2023-05-24T20:30:40.080Z,13.93
2023-05-24T20:33:28.600Z,13.72
2023-05-24T20:36:17.148Z,13.73
2023-05-24T20:39:06.608Z,13.56
2023-05-24T20:41:58.321Z,13.49
2023-05-24T20:44:47.077Z,13.29
2023-05-24T20:47:35.569Z,13.06
2023-05-24T20:50:24.177Z,13.03
2023-05-24T20:53:12.678Z,12.99
2023-05-24T20:56:01.905Z,12.92
2023-05-24T20:58:53.383Z,12.93
2023-05-24T21:01:42.310Z,12.80
2023-05-24T21:04:31.226Z,12.86
2023-05-24T21:07:19.771Z,12.89
2023-05-24T21:10:09.339Z,12.92
2023-05-24T21:12:57.854Z,12.80
2023-05-24T21:15:47.861Z,12.79
2023-05-24T21:18:36.617Z,12.72
2023-05-24T21:21:25.175Z,12.57
2023-05-24T21:24:15.789Z,12.40
2023-05-24T21:27:04.511Z,12.50
2023-05-24T21:29:53.003Z,12.46
2023-05-24T21:32:42.983Z,12.43
2023-05-24T21:35:32.577Z,12.35
2023-05-24T21:38:21.409Z,12.27
2023-05-24T21:41:09.980Z,12.05
2023-05-24T21:43:58.532Z,12.18
2023-05-24T21:46:47.133Z,12.16
2023-05-24T21:49:37.024Z,12.07
2023-05-24T21:52:25.577Z,11.93
2023-05-24T21:55:14.171Z,11.86
2023-05-24T21:58:02.721Z,11.82
2023-05-24T22:00:51.442Z,11.64
2023-05-24T22:03:40.349Z,11.61
2023-05-24T22:06:30.358Z,11.60
2023-05-24T22:09:19.122Z,11.56
2023-05-24T22:12:07.798Z,11.46
2023-05-24T22:14:56.346Z,11.45
2023-05-24T22:17:44.999Z,11.40
2023-05-24T22:20:36.481Z,11.39
2023-05-24T22:23:26.689Z,11.34
2023-05-24T22:26:17.146Z,11.20
2023-05-24T22:29:05.672Z,11.13
2023-05-24T22:31:54.190Z,11.09
2023-05-24T22:34:42.770Z,11.10
2023-05-24T22:37:31.323Z,11.06
2023-05-24T22:40:21.276Z,11.02
2023-05-24T22:43:09.774Z,10.99
2023-05-24T22:45:58.360Z,10.93
2023-05-24T22:48:49.866Z,10.85
2023-05-24T22:51:38.774Z,10.86
2023-05-24T22:54:27.223Z,10.73
2023-05-24T22:57:21.586Z,10.65
2023-05-24T23:00:11.753Z,10.70
2023-05-24T23:03:00.360Z,10.66
2023-05-24T23:05:48.864Z,10.63
2023-05-24T23:08:37.459Z,10.55
2023-05-24T23:11:26.377Z,9.95
2023-05-24T23:14:16.941Z,10.51
2023-05-24T23:17:06.068Z,10.43
2023-05-24T23:19:54.709Z,10.41
2023-05-24T23:22:43.579Z,10.32
2023-05-24T23:25:32.269Z,10.29
2023-05-24T23:28:21.232Z,10.26
2023-05-24T23:31:11.290Z,10.21
2023-05-24T23:33:59.893Z,10.13
2023-05-24T23:36:48.392Z,10.06
2023-05-24T23:39:37.106Z,10.00
2023-05-24T23:42:26.312Z,9.97
2023-05-24T23:45:16.169Z,10.00
2023-05-24T23:48:06.552Z,9.98
2023-05-24T23:50:55.175Z,9.94
2023-05-24T23:53:43.647Z,9.81
2023-05-24T23:56:32.181Z,9.82
2023-05-24T23:59:20.796Z,9.74
